Terminal Aerodrome Forecast
Issued by NWS Cleveland, OH

Home | Current Version | Previous Version | Text Only | Print | Product List | Glossary On
Versions: 1 2 3 4 5 6 7 8 9 10 11 12 13 14 15 16 17 18 19 20 21 22 23 24 25 26 27
092
FTUS41 KCLE 011739
TAFCLE
TAF
KCLE 011739Z 0118/0224 30006KT P6SM OVC008
      TEMPO 0118/0121 6SM BR OVC012
     FM012100 36006KT 2SM BR OVC006
     FM020500 06004KT 2SM -SHRA BR OVC006
     FM021100 03004KT 1SM BR OVC004=

USA.gov is the U.S. government's official web portal to all federal, state and local government web resources and services.